createdAt,value
2023-02-09T00:01:18.340Z,3.83
2023-02-09T00:03:45.698Z,3.90
2023-02-09T00:06:14.442Z,4.27
2023-02-09T00:08:42.067Z,4.07
2023-02-09T00:11:46.504Z,4.47
2023-02-09T00:14:14.755Z,3.67
2023-02-09T00:16:42.606Z,3.23
2023-02-09T00:19:10.206Z,3.77
2023-02-09T00:21:37.587Z,3.50
2023-02-09T00:24:05.203Z,3.60
2023-02-09T00:26:33.268Z,4.57
2023-02-09T00:29:00.739Z,4.07
2023-02-09T00:31:29.215Z,3.73
2023-02-09T00:33:58.309Z,3.90
2023-02-09T00:36:27.829Z,3.77
2023-02-09T00:38:55.189Z,3.17
2023-02-09T00:41:42.841Z,3.30
2023-02-09T00:44:10.940Z,3.50
2023-02-09T00:46:38.518Z,4.47
2023-02-09T00:49:06.165Z,3.57
2023-02-09T00:51:33.576Z,3.40
2023-02-09T00:54:02.912Z,3.97
2023-02-09T00:56:30.138Z,3.60
2023-02-09T00:58:57.417Z,3.63
2023-02-09T01:01:25.575Z,3.10
2023-02-09T01:03:53.610Z,4.17
2023-02-09T01:06:21.045Z,3.80
2023-02-09T01:08:48.612Z,3.90
2023-02-09T01:11:16.466Z,3.23
2023-02-09T01:13:45.163Z,4.07
2023-02-09T01:16:14.384Z,4.10
2023-02-09T01:18:42.608Z,3.97
2023-02-09T01:21:11.521Z,3.60
2023-02-09T01:23:38.819Z,3.40
2023-02-09T01:26:07.439Z,3.63
2023-02-09T01:28:38.284Z,3.77
2023-02-09T01:31:06.819Z,3.67
2023-02-09T01:33:34.280Z,2.63
2023-02-09T01:36:05.056Z,4.43
2023-02-09T01:38:32.356Z,3.73
2023-02-09T01:40:59.669Z,4.00
2023-02-09T01:43:27.019Z,3.63
2023-02-09T01:45:55.272Z,3.23
2023-02-09T01:48:25.555Z,3.80
2023-02-09T01:50:54.980Z,4.00
2023-02-09T01:53:22.816Z,4.23
2023-02-09T01:55:58.381Z,4.30
2023-02-09T01:58:26.924Z,4.40
2023-02-09T02:00:54.574Z,3.93
2023-02-09T02:03:26.711Z,3.90
2023-02-09T02:05:57.873Z,3.77
2023-02-09T02:08:31.086Z,3.70
2023-02-09T02:10:59.432Z,3.73
2023-02-09T02:13:26.747Z,3.77
2023-02-09T02:15:57.262Z,3.67
2023-02-09T02:18:39.748Z,3.87
2023-02-09T02:21:26.113Z,4.50
2023-02-09T02:23:56.168Z,4.00
2023-02-09T02:26:36.308Z,3.77
2023-02-09T02:29:03.662Z,3.67
2023-02-09T02:31:46.278Z,4.07
2023-02-09T02:34:21.193Z,3.93
2023-02-09T02:37:14.922Z,4.17
2023-02-09T02:39:42.193Z,3.23
2023-02-09T02:42:52.099Z,3.53
2023-02-09T02:45:24.154Z,3.37
2023-02-09T02:47:58.080Z,3.57
2023-02-09T02:50:27.687Z,3.77
2023-02-09T02:52:56.665Z,3.63
2023-02-09T02:55:26.568Z,4.00
2023-02-09T02:57:55.932Z,3.13
2023-02-09T03:00:28.034Z,3.87
2023-02-09T03:02:58.514Z,3.27
2023-02-09T03:05:27.350Z,3.73
2023-02-09T03:07:54.693Z,3.90
2023-02-09T03:10:25.644Z,2.83
2023-02-09T03:12:58.936Z,3.27
2023-02-09T03:15:35.818Z,3.63
2023-02-09T03:18:21.925Z,3.33
2023-02-09T03:20:55.545Z,3.03
2023-02-09T03:23:46.368Z,3.17
2023-02-09T03:26:15.624Z,3.10
2023-02-09T03:28:43.559Z,3.93
2023-02-09T03:31:11.255Z,3.37
2023-02-09T03:33:39.143Z,3.67
2023-02-09T03:36:13.792Z,3.23
2023-02-09T03:38:41.123Z,2.87
2023-02-09T03:41:08.451Z,3.67
2023-02-09T03:43:54.285Z,3.77
2023-02-09T03:46:21.735Z,3.53
2023-02-09T03:48:50.633Z,3.80
2023-02-09T03:51:18.081Z,3.27
2023-02-09T03:53:47.135Z,3.43
2023-02-09T03:56:14.460Z,3.23
2023-02-09T03:58:41.759Z,4.03
2023-02-09T04:01:10.443Z,3.70
2023-02-09T04:03:39.690Z,3.30
2023-02-09T04:06:06.971Z,3.00
2023-02-09T04:08:34.332Z,3.23
2023-02-09T04:11:01.583Z,3.53
2023-02-09T04:13:29.213Z,3.00
2023-02-09T04:15:56.566Z,3.27
2023-02-09T04:18:23.930Z,3.57
2023-02-09T04:20:51.275Z,4.50
2023-02-09T04:23:20.948Z,3.27
2023-02-09T04:25:48.574Z,3.63
2023-02-09T04:28:18.243Z,3.40
2023-02-09T04:30:45.996Z,4.10
2023-02-09T04:33:13.507Z,3.80
2023-02-09T04:35:40.869Z,2.53
2023-02-09T04:38:08.244Z,3.63
2023-02-09T04:40:35.486Z,3.40
2023-02-09T04:43:02.744Z,2.97
2023-02-09T04:45:30.033Z,4.33
2023-02-09T04:47:57.297Z,3.63
2023-02-09T04:50:24.578Z,3.30
2023-02-09T04:52:52.078Z,3.67
2023-02-09T04:55:19.378Z,3.67
2023-02-09T04:58:05.328Z,3.50
2023-02-09T05:00:32.571Z,3.93
2023-02-09T05:02:59.942Z,3.70
2023-02-09T05:05:27.477Z,3.50
2023-02-09T05:07:54.779Z,3.00
2023-02-09T05:10:22.177Z,3.50
2023-02-09T05:12:49.732Z,3.40
2023-02-09T05:15:17.132Z,3.20
2023-02-09T05:17:44.427Z,4.20
2023-02-09T05:20:11.943Z,3.57
2023-02-09T05:22:39.308Z,3.37
2023-02-09T05:25:06.727Z,3.47
2023-02-09T05:27:34.064Z,2.60
2023-02-09T05:30:01.696Z,3.17
2023-02-09T05:32:29.079Z,3.40
2023-02-09T05:34:56.455Z,3.40
2023-02-09T05:37:23.734Z,3.70
2023-02-09T05:39:51.508Z,4.07
2023-02-09T05:42:19.082Z,3.50
2023-02-09T05:44:50.730Z,4.10
2023-02-09T05:47:19.031Z,4.13
2023-02-09T05:49:46.493Z,2.97
2023-02-09T05:52:14.626Z,3.60
2023-02-09T05:54:41.966Z,2.93
2023-02-09T05:57:09.631Z,3.43
2023-02-09T05:59:36.947Z,3.43
2023-02-09T06:02:04.340Z,4.67
2023-02-09T06:04:31.967Z,3.67
2023-02-09T06:06:59.274Z,3.97
2023-02-09T06:09:26.682Z,3.80
2023-02-09T06:11:54.385Z,4.23
2023-02-09T06:14:23.419Z,3.40
2023-02-09T06:16:50.839Z,3.40
2023-02-09T06:19:20.096Z,4.13
2023-02-09T06:21:47.771Z,3.63
2023-02-09T06:24:15.510Z,4.00
2023-02-09T06:26:42.875Z,3.60
2023-02-09T06:29:10.323Z,4.70
2023-02-09T06:31:38.300Z,3.83
2023-02-09T06:34:05.894Z,3.73
2023-02-09T06:36:33.386Z,3.97
2023-02-09T06:39:01.252Z,3.20
2023-02-09T06:41:28.697Z,4.67
2023-02-09T06:43:56.094Z,2.97
2023-02-09T06:46:23.594Z,3.70
2023-02-09T06:48:51.356Z,3.67
2023-02-09T06:51:19.096Z,3.40
2023-02-09T06:53:46.646Z,4.00
2023-02-09T06:56:14.471Z,4.13
2023-02-09T06:58:42.591Z,4.00
2023-02-09T07:01:11.762Z,3.43
2023-02-09T07:03:41.832Z,4.17
2023-02-09T07:06:10.881Z,3.47
2023-02-09T07:08:38.336Z,4.30
2023-02-09T07:11:07.295Z,3.23
2023-02-09T07:13:35.340Z,3.73
2023-02-09T07:16:04.182Z,3.77
2023-02-09T07:18:31.633Z,3.80
2023-02-09T07:21:00.540Z,3.27
2023-02-09T07:23:28.153Z,4.17
2023-02-09T07:25:55.826Z,4.07
2023-02-09T07:28:26.386Z,3.27
2023-02-09T07:30:54.159Z,4.50
2023-02-09T07:33:22.430Z,3.03
2023-02-09T07:35:49.932Z,3.90
2023-02-09T07:38:17.686Z,3.03
2023-02-09T07:40:46.650Z,3.73
2023-02-09T07:43:14.802Z,3.27
2023-02-09T07:45:42.348Z,3.23
2023-02-09T07:48:11.328Z,3.47
2023-02-09T07:50:38.825Z,3.73
2023-02-09T07:53:06.305Z,3.63
2023-02-09T07:55:33.771Z,2.83
2023-02-09T07:58:01.086Z,2.87
2023-02-09T08:00:28.476Z,3.50
2023-02-09T08:02:58.753Z,3.43
2023-02-09T08:05:49.588Z,3.87
2023-02-09T08:08:17.012Z,2.67
2023-02-09T08:10:44.591Z,2.87
2023-02-09T08:13:15.777Z,3.50
2023-02-09T08:15:45.647Z,3.10
2023-02-09T08:18:15.048Z,3.27
2023-02-09T08:20:43.327Z,3.43
2023-02-09T08:23:12.724Z,3.57
2023-02-09T08:25:43.356Z,3.53
2023-02-09T08:28:11.097Z,3.70
2023-02-09T08:30:38.875Z,4.63
2023-02-09T08:33:06.152Z,3.60
2023-02-09T08:35:36.138Z,3.83
2023-02-09T08:38:05.668Z,4.00
2023-02-09T08:40:33.266Z,3.93
2023-02-09T08:43:00.733Z,3.13
2023-02-09T08:45:28.982Z,3.30
2023-02-09T08:47:56.938Z,3.90
2023-02-09T08:50:24.382Z,3.70
2023-02-09T08:52:51.854Z,3.83
2023-02-09T08:55:20.191Z,4.27
2023-02-09T08:57:48.334Z,4.00
2023-02-09T09:00:23.663Z,3.73
2023-02-09T09:02:53.685Z,4.33
2023-02-09T09:05:21.089Z,3.43
2023-02-09T09:07:48.572Z,4.43
2023-02-09T09:10:16.108Z,4.07
2023-02-09T09:12:44.570Z,4.13
2023-02-09T09:15:11.957Z,3.57
2023-02-09T09:17:40.913Z,3.80
2023-02-09T09:20:08.606Z,3.60
2023-02-09T09:22:38.951Z,3.37
2023-02-09T09:25:06.817Z,3.77
2023-02-09T09:27:36.722Z,3.97
2023-02-09T09:30:05.604Z,2.93
2023-02-09T09:32:33.294Z,4.97
2023-02-09T09:35:00.880Z,3.90
2023-02-09T09:37:28.453Z,4.03
2023-02-09T09:39:55.849Z,3.47
2023-02-09T09:42:23.283Z,3.20
2023-02-09T09:44:50.654Z,4.40
2023-02-09T09:47:23.806Z,2.73
2023-02-09T09:49:51.319Z,4.47
2023-02-09T09:52:39.080Z,3.90
2023-02-09T09:55:07.578Z,4.13
2023-02-09T09:57:38.069Z,4.73
2023-02-09T10:00:05.733Z,4.23
2023-02-09T10:02:34.630Z,4.30
2023-02-09T10:05:21.635Z,4.03
2023-02-09T10:07:57.102Z,3.90
2023-02-09T10:10:43.901Z,4.37
2023-02-09T10:13:19.152Z,3.90
2023-02-09T10:15:56.505Z,4.70
2023-02-09T10:18:27.821Z,3.83
2023-02-09T10:20:59.512Z,3.23
2023-02-09T10:23:37.261Z,4.60
2023-02-09T10:26:16.909Z,4.50
2023-02-09T10:28:46.345Z,3.27
2023-02-09T10:31:33.783Z,5.10
2023-02-09T10:34:14.102Z,4.63
2023-02-09T10:36:53.924Z,4.50
2023-02-09T10:39:38.303Z,5.00
2023-02-09T10:42:18.197Z,4.67
2023-02-09T10:44:50.213Z,4.43
2023-02-09T10:47:20.937Z,4.47
2023-02-09T10:49:53.375Z,5.37
2023-02-09T10:52:22.895Z,4.33
2023-02-09T10:54:51.840Z,4.43
2023-02-09T10:57:29.761Z,5.10
2023-02-09T11:00:16.087Z,3.73
2023-02-09T11:02:50.440Z,4.87
2023-02-09T11:05:21.102Z,4.97
2023-02-09T11:07:55.535Z,4.77
2023-02-09T11:10:26.894Z,5.23
2023-02-09T11:12:54.589Z,4.63
2023-02-09T11:15:36.887Z,5.13
2023-02-09T11:18:11.681Z,5.83
2023-02-09T11:20:50.101Z,5.23
2023-02-09T11:23:36.739Z,6.13
2023-02-09T11:26:30.385Z,4.43
2023-02-09T11:29:10.406Z,5.67
2023-02-09T11:31:41.233Z,5.30
2023-02-09T11:34:26.218Z,5.87
2023-02-09T11:37:02.994Z,5.37
2023-02-09T11:39:51.132Z,4.83
2023-02-09T11:42:41.466Z,5.30
2023-02-09T11:45:12.078Z,4.57
2023-02-09T11:48:01.304Z,6.07
2023-02-09T11:50:28.890Z,6.10
2023-02-09T11:52:57.725Z,4.97
2023-02-09T11:55:38.453Z,5.70
2023-02-09T11:58:17.307Z,5.63
2023-02-09T12:01:15.216Z,5.57
2023-02-09T12:03:50.796Z,5.53
2023-02-09T12:06:23.190Z,5.40
2023-02-09T12:09:01.438Z,6.00
2023-02-09T12:11:34.582Z,5.60
2023-02-09T12:14:11.073Z,5.73
2023-02-09T12:16:42.054Z,4.97
2023-02-09T12:19:33.985Z,5.73
2023-02-09T12:22:21.024Z,5.33
2023-02-09T12:25:11.144Z,6.33
2023-02-09T12:27:42.640Z,5.43
2023-02-09T12:30:30.529Z,7.07
2023-02-09T12:33:15.880Z,5.90
2023-02-09T12:36:03.435Z,5.03
2023-02-09T12:38:52.257Z,6.30
2023-02-09T12:41:24.017Z,6.23
2023-02-09T12:44:13.916Z,6.17
2023-02-09T12:46:47.621Z,5.37
2023-02-09T12:49:15.870Z,6.23
2023-02-09T12:51:50.115Z,5.20
2023-02-09T12:54:35.968Z,6.77
2023-02-09T12:57:19.152Z,6.57
2023-02-09T12:59:56.279Z,6.13
2023-02-09T13:02:25.669Z,6.00
2023-02-09T13:05:11.981Z,7.03
2023-02-09T13:08:00.729Z,5.97
2023-02-09T13:10:39.947Z,6.43
2023-02-09T13:13:13.509Z,6.60
2023-02-09T13:15:50.049Z,5.97
2023-02-09T13:18:20.610Z,6.27
2023-02-09T13:20:48.088Z,7.57
2023-02-09T13:23:31.793Z,6.10
2023-02-09T13:26:02.196Z,6.10
2023-02-09T13:28:29.625Z,6.70
2023-02-09T13:30:57.124Z,6.80
2023-02-09T13:33:29.229Z,5.80
2023-02-09T13:36:06.945Z,6.57
2023-02-09T13:38:36.520Z,8.00
2023-02-09T13:41:07.281Z,5.33
2023-02-09T13:43:38.330Z,6.23
2023-02-09T13:46:06.142Z,5.93
2023-02-09T13:48:35.881Z,5.77
2023-02-09T13:51:05.394Z,5.60
2023-02-09T13:53:32.843Z,7.00
2023-02-09T13:56:01.305Z,6.07
2023-02-09T13:58:35.263Z,6.67
2023-02-09T14:01:13.345Z,6.93
2023-02-09T14:03:57.016Z,5.47
2023-02-09T14:06:48.309Z,6.00
2023-02-09T14:09:17.544Z,6.53
2023-02-09T14:11:48.607Z,5.37
2023-02-09T14:14:27.433Z,5.80
2023-02-09T14:17:25.153Z,6.73
2023-02-09T14:19:53.965Z,6.10
2023-02-09T14:22:31.964Z,6.00
2023-02-09T14:24:59.438Z,7.13
2023-02-09T14:27:33.099Z,6.80
2023-02-09T14:30:01.390Z,6.03
2023-02-09T14:32:35.302Z,6.33
2023-02-09T14:35:23.143Z,6.13
2023-02-09T14:37:51.390Z,7.10
2023-02-09T14:40:25.134Z,7.27
2023-02-09T14:42:56.582Z,6.17
2023-02-09T14:45:26.526Z,6.33
2023-02-09T14:47:54.109Z,5.10
2023-02-09T14:50:23.506Z,6.40
2023-02-09T14:53:03.066Z,5.83
2023-02-09T14:55:31.909Z,6.33
2023-02-09T14:57:59.337Z,5.97
2023-02-09T15:00:30.644Z,6.80
2023-02-09T15:03:00.475Z,5.90
2023-02-09T15:05:31.050Z,6.23
2023-02-09T15:08:04.804Z,6.97
2023-02-09T15:10:35.006Z,6.13
2023-02-09T15:13:03.295Z,5.53
2023-02-09T15:15:31.393Z,6.03
2023-02-09T15:18:00.039Z,6.97
2023-02-09T15:20:29.144Z,5.40
2023-02-09T15:22:57.084Z,5.77
2023-02-09T15:25:25.691Z,6.33
2023-02-09T15:28:00.632Z,5.10
2023-02-09T15:30:30.657Z,5.60
2023-02-09T15:32:59.213Z,6.50
2023-02-09T15:35:29.815Z,6.87
2023-02-09T15:37:59.752Z,6.83
2023-02-09T15:40:57.482Z,5.97
2023-02-09T15:43:57.807Z,5.97
2023-02-09T15:46:44.349Z,6.10
2023-02-09T15:49:20.773Z,5.33
2023-02-09T15:51:48.255Z,6.20
2023-02-09T15:54:23.020Z,6.03
2023-02-09T15:56:50.628Z,6.10
2023-02-09T15:59:23.427Z,6.37
2023-02-09T16:01:51.556Z,6.17
2023-02-09T16:04:19.162Z,6.30
2023-02-09T16:06:48.448Z,6.47
2023-02-09T16:09:18.833Z,5.57
2023-02-09T16:11:48.296Z,5.87
2023-02-09T16:14:23.103Z,5.30
2023-02-09T16:16:51.074Z,5.60
2023-02-09T16:19:19.040Z,5.40
2023-02-09T16:21:51.533Z,5.53
2023-02-09T16:24:31.297Z,6.20
2023-02-09T16:26:59.759Z,5.93
2023-02-09T16:29:27.510Z,5.80
2023-02-09T16:31:56.650Z,4.77
2023-02-09T16:34:24.607Z,5.10
2023-02-09T16:36:52.114Z,6.33
2023-02-09T16:39:20.740Z,5.03
2023-02-09T16:41:49.688Z,5.20
2023-02-09T16:44:18.924Z,4.80
2023-02-09T16:46:48.278Z,5.30
2023-02-09T16:49:34.709Z,5.23
2023-02-09T16:52:07.576Z,4.90
2023-02-09T16:54:37.776Z,4.93
2023-02-09T16:57:05.169Z,5.20
2023-02-09T16:59:32.542Z,4.93
2023-02-09T17:02:00.089Z,5.03
2023-02-09T17:04:27.438Z,4.60
2023-02-09T17:06:54.855Z,4.10
2023-02-09T17:09:22.156Z,4.30
2023-02-09T17:11:49.444Z,4.63
2023-02-09T17:14:16.794Z,4.90
2023-02-09T17:16:49.543Z,4.07
2023-02-09T17:19:18.272Z,4.17
2023-02-09T17:21:45.516Z,3.70
2023-02-09T17:24:17.050Z,4.13
2023-02-09T17:26:44.542Z,4.87
2023-02-09T17:29:12.362Z,5.30
2023-02-09T17:31:52.745Z,3.93
2023-02-09T17:34:27.010Z,4.30
2023-02-09T17:36:55.123Z,3.67
2023-02-09T17:39:22.409Z,4.20
2023-02-09T17:41:50.173Z,4.57
2023-02-09T17:44:26.349Z,4.57
2023-02-09T17:46:59.676Z,4.10
2023-02-09T17:49:27.033Z,4.47
2023-02-09T17:51:55.171Z,4.87
2023-02-09T17:54:24.741Z,3.73
2023-02-09T17:56:52.140Z,4.03
2023-02-09T17:59:22.215Z,4.20
2023-02-09T18:01:50.320Z,4.47
2023-02-09T18:04:19.517Z,5.73
2023-02-09T18:06:46.960Z,4.57
2023-02-09T18:09:14.893Z,4.27
2023-02-09T18:11:45.304Z,4.60
2023-02-09T18:14:13.440Z,3.63
2023-02-09T18:16:42.848Z,4.40
2023-02-09T18:19:11.103Z,3.67
2023-02-09T18:21:38.627Z,4.10
2023-02-09T18:24:06.391Z,4.33
2023-02-09T18:26:34.326Z,3.43
2023-02-09T18:29:01.697Z,4.00
2023-02-09T18:31:29.086Z,3.97
2023-02-09T18:33:57.328Z,3.83
2023-02-09T18:36:24.625Z,4.00
2023-02-09T18:38:53.457Z,4.47
2023-02-09T18:41:21.112Z,4.23
2023-02-09T18:43:49.795Z,4.17
2023-02-09T18:46:19.548Z,3.93
2023-02-09T18:48:47.284Z,4.30
2023-02-09T18:51:15.127Z,3.43
2023-02-09T18:53:42.474Z,3.77
2023-02-09T18:56:15.538Z,3.73
2023-02-09T18:58:42.876Z,3.77
2023-02-09T19:01:11.528Z,4.33
2023-02-09T19:03:39.028Z,3.23
2023-02-09T19:06:09.530Z,3.13
2023-02-09T19:08:36.802Z,3.33
2023-02-09T19:11:05.529Z,3.87
2023-02-09T19:13:36.829Z,3.27
2023-02-09T19:16:04.256Z,3.20
2023-02-09T19:18:31.653Z,4.27
2023-02-09T19:20:59.168Z,3.70
2023-02-09T19:23:26.513Z,4.27
2023-02-09T19:26:12.264Z,3.43
2023-02-09T19:28:39.596Z,3.37
2023-02-09T19:31:11.666Z,3.27
2023-02-09T19:33:39.048Z,3.47
2023-02-09T19:36:06.463Z,3.93
2023-02-09T19:38:33.771Z,3.30
2023-02-09T19:41:10.471Z,3.87
2023-02-09T19:43:39.403Z,3.03
2023-02-09T19:46:06.907Z,3.07
2023-02-09T19:48:34.356Z,3.17
2023-02-09T19:51:04.900Z,3.23
2023-02-09T19:53:32.220Z,3.97
2023-02-09T19:55:59.980Z,3.57
2023-02-09T19:58:27.281Z,3.10
2023-02-09T20:00:56.000Z,3.90
2023-02-09T20:03:23.930Z,3.23
2023-02-09T20:05:51.786Z,3.17
2023-02-09T20:08:20.225Z,3.00
2023-02-09T20:10:48.008Z,2.83
2023-02-09T20:13:15.901Z,3.23
2023-02-09T20:15:44.210Z,3.10
2023-02-09T20:18:13.483Z,2.77
2023-02-09T20:20:43.392Z,3.47
2023-02-09T20:23:11.152Z,3.27
2023-02-09T20:25:42.471Z,3.83
2023-02-09T20:28:12.892Z,3.33
2023-02-09T20:30:44.321Z,2.53
2023-02-09T20:33:14.985Z,3.10
2023-02-09T20:35:42.967Z,2.83
2023-02-09T20:38:10.722Z,3.40
2023-02-09T20:40:38.203Z,2.87
2023-02-09T20:43:24.155Z,3.23
2023-02-09T20:46:10.801Z,2.97
2023-02-09T20:48:38.144Z,3.13
2023-02-09T20:51:05.583Z,3.27
2023-02-09T20:53:32.833Z,2.90
2023-02-09T20:56:00.105Z,3.03
2023-02-09T20:58:27.470Z,3.10
2023-02-09T21:00:54.838Z,2.63
2023-02-09T21:03:22.148Z,2.73
2023-02-09T21:05:49.464Z,3.13
2023-02-09T21:08:16.815Z,2.67
2023-02-09T21:10:44.132Z,2.97
2023-02-09T21:13:14.625Z,2.83
2023-02-09T21:15:42.605Z,2.67
2023-02-09T21:18:10.054Z,3.73
2023-02-09T21:20:37.419Z,2.87
2023-02-09T21:23:04.799Z,3.23
2023-02-09T21:25:32.092Z,3.23
2023-02-09T21:27:59.802Z,2.87
2023-02-09T21:30:27.835Z,2.57
2023-02-09T21:32:55.877Z,2.73
2023-02-09T21:35:23.194Z,2.80
2023-02-09T21:37:50.526Z,3.17
2023-02-09T21:40:20.327Z,3.03
2023-02-09T21:42:49.416Z,2.30
2023-02-09T21:45:16.728Z,2.80
2023-02-09T21:47:44.159Z,2.73
2023-02-09T21:50:16.230Z,2.50
2023-02-09T21:52:43.573Z,2.63
2023-02-09T21:55:11.025Z,2.47
2023-02-09T21:57:38.362Z,2.97
2023-02-09T22:00:08.867Z,2.77
2023-02-09T22:02:38.571Z,2.73
2023-02-09T22:05:07.406Z,2.90
2023-02-09T22:07:35.164Z,2.20
2023-02-09T22:10:02.624Z,2.90
2023-02-09T22:12:30.657Z,2.40
2023-02-09T22:14:58.109Z,2.50
2023-02-09T22:17:26.175Z,3.00
2023-02-09T22:19:53.475Z,2.30
2023-02-09T22:22:20.810Z,2.97
2023-02-09T22:24:48.319Z,2.53
2023-02-09T22:27:15.780Z,2.90
2023-02-09T22:29:44.256Z,2.63
2023-02-09T22:32:11.627Z,2.50
2023-02-09T22:34:39.065Z,2.60
2023-02-09T22:37:06.342Z,2.67
2023-02-09T22:39:33.789Z,2.73
2023-02-09T22:42:01.218Z,2.60
2023-02-09T22:44:30.033Z,2.47
2023-02-09T22:46:57.725Z,2.40
2023-02-09T22:49:25.066Z,2.67
2023-02-09T22:51:52.455Z,2.60
2023-02-09T22:54:20.495Z,2.47
2023-02-09T22:56:47.900Z,2.33
2023-02-09T22:59:15.742Z,2.27
2023-02-09T23:01:43.549Z,2.40
2023-02-09T23:04:11.258Z,2.23
2023-02-09T23:06:38.550Z,2.73
2023-02-09T23:09:08.817Z,2.03
2023-02-09T23:11:37.832Z,2.33
2023-02-09T23:14:10.458Z,2.77
2023-02-09T23:16:39.501Z,2.53
2023-02-09T23:19:07.863Z,2.10
2023-02-09T23:21:37.540Z,2.23
2023-02-09T23:24:05.272Z,1.83
2023-02-09T23:26:32.810Z,2.30
2023-02-09T23:29:00.954Z,2.47
2023-02-09T23:31:29.825Z,2.30
2023-02-09T23:33:57.351Z,2.07
2023-02-09T23:36:26.312Z,2.53
2023-02-09T23:38:54.786Z,2.10
2023-02-09T23:41:22.735Z,2.50
2023-02-09T23:43:50.582Z,2.60
2023-02-09T23:46:19.445Z,2.10
2023-02-09T23:48:47.004Z,2.30
2023-02-09T23:51:15.760Z,2.20
2023-02-09T23:53:43.092Z,2.00
2023-02-09T23:56:10.415Z,2.10
2023-02-09T23:58:39.123Z,1.90
